Kapalua-West, HI

3:29 AM HST on August 23, 2014 (GMT -1000)
The Ridge at Kapalua | Change Station
CLOSE
Current Station
Personal Weather Station
Location: Kapalua, HI
Elevation: 100 ft
Nearby Weather Stations
Active Advisory: High Surf Advisory

Elev 100 ft 21.00 °N, 156.66 °W | Updated 4 minutes ago

Mostly Cloudy
Mostly Cloudy
74.3 °F
Feels Like 74 °F
N
1.0
Wind Variable Wind from East
Gusts 2.0 mph

Today
High -- | Low -- °F
--% Chance of Precip.
Yesterday
High -- | Low -- °F
Precip. -- in
6:08 AM 6:50 PM
Waning Crescent, 4% visible
Pressure 29.98 in
Visibility 10.0 miles
Clouds Few 2700 ft
Mostly Cloudy 7000 ft
Heat Index 74 °F
Dew Point 69 °F
Humidity 83%
Rainfall 0.00 in
Snow Depth Not available.
UV 0 out of 12
Pollen Not available.
Air Quality Not available.
Flu Activity Not available.
METAR PHOG 231254Z AUTO 04008KT 10SM FEW027 BKN070 24/19 A2997 RMK AO2 SLP152 T02440194 TSNO

More Conditions Fewer Conditions

Pressure 29.98 in
Visibility 10.0 miles
Clouds Few 2700 ft
Mostly Cloudy 7000 ft
Heat Index 74 °F
Dew Point 69 °F
Humidity 83%
Rainfall 0.00 in
Snow Depth Not available.
UV 0 out of 12
Pollen Not available.
Air Quality Not available.
Flu Activity Not available.
METAR PHOG 231254Z AUTO 04008KT 10SM FEW027 BKN070 24/19 A2997 RMK AO2 SLP152 T02440194 TSNO

More Conditions Fewer Conditions

10-Day Weather Forecast

Almanac

Astronomy

Aug. 23, 2014 Rise Set
Actual Time 6:08 AM HST 6:50 PM HST
Civil Twilight 5:45 AM HST 7:12 PM HST
Nautical Twilight 5:18 AM HST 7:39 PM HST
Astronomical Twilight 4:51 AM HST 8:06 PM HST
Moon 4:38 AM HST 5:40 PM HST
Length of Visible Light 13h 27m
Length of Day
12h 42m
Tomorrow will be 1m 6s shorter.
Waning Crescent, 4% of the Moon is Illuminated
Today
Waning Crescent
Aug 25
New
Sep 2
First Quarter
Sep 8
Full
Sep 15
Last Quarter

Today's Extremes

State Highs State Lows

Community

WunderPhotos

Upload Photos

1,746,451 photos uploaded!

WunderBlogs® & News

By Dr. Jeff Masters
Director of Meteorology, Weather Underground
By Kari Strenfel
Meteorologist, Weather Underground
By Christopher C. Burt
Weather Historian, Weather Underground
August 23, 2014
August 23, 2014
August 23, 2014

Nearby

Snow Depth

Station Depth Elevation
No new snow has been reported.

Earthquake Activity

City Distance Mag. Time & Date
No recent earthquake activity has been reported nearby.
Minimum magnitude displayed is 2.5.

Coastal Water Temperatures

Place Temperature
No Stations Reporting

Nearby Weather Stations